Time;durP1;ratioP1;P1;durP2;ratioP2;P2;SDS_P1;SDS_P2;PMS_P1;PMS_P2;Temp;Humidity;BMP_temperature;BMP_pressure;BME280_temperature;BME280_humidity;BME280_pressure;Samples;Min_cycle;Max_cycle;Signal;HPM_P1;HPM_P2
2022/09/07 00:00:50;;;;;;;3.12;1.40;;;;;;;7.37;100.00;100791.13;1705526;84;21050;-56
2022/09/07 00:03:18;;;;;;;;;;;;;;;7.34;100.00;100791.42;1703806;82;21711;-56
2022/09/07 00:05:48;;;;;;;3.60;1.72;;;;;;;7.29;100.00;100793.17;1672439;85;21908;-58
2022/09/07 00:08:17;;;;;;;3.72;1.50;;;;;;;7.33;100.00;100792.88;1672417;84;21407;-62
2022/09/07 00:10:55;;;;;;;3.40;1.40;;;;;;;7.29;100.00;100793.17;1673030;84;21874;-56
2022/09/07 00:13:23;;;;;;;4.40;1.75;;;;;;;7.26;100.00;100795.25;1672202;85;21027;-58
2022/09/07 00:15:50;;;;;;;2.87;1.70;;;;;;;7.25;100.00;100795.73;1672864;85;21335;-62
2022/09/07 00:18:18;;;;;;;4.28;1.60;;;;;;;7.28;100.00;100796.73;1672484;85;21278;-56
2022/09/07 00:20:45;;;;;;;3.00;1.67;;;;;;;7.27;100.00;100798.16;1672939;85;21557;-56
2022/09/07 00:23:12;;;;;;;4.62;1.90;;;;;;;7.22;100.00;100800.39;1672728;85;21031;-56
2022/09/07 00:25:41;;;;;;;2.98;1.67;;;;;;;7.21;100.00;100800.88;1672436;85;20980;-56
2022/09/07 00:28:09;;;;;;;4.20;1.67;;;;;;;7.18;100.00;100798.58;1672550;85;21356;-58
2022/09/07 00:30:41;;;;;;;4.10;1.77;;;;;;;7.17;100.00;100798.25;1637944;87;22509;-56
2022/09/07 00:33:08;;;;;;;5.85;2.70;;;;;;;7.20;100.00;100796.66;1637929;87;20931;-56
2022/09/07 00:35:42;;;;;;;3.47;2.15;;;;;;;7.17;100.00;100795.66;1637261;87;21119;-58
2022/09/07 00:38:09;;;;;;;4.15;2.00;;;;;;;7.14;100.00;100791.25;1637432;87;22019;-56
2022/09/07 00:40:38;;;;;;;5.03;2.67;;;;;;;7.12;100.00;100801.74;1637641;87;21567;-56
2022/09/07 00:43:06;;;;;;;5.00;2.42;;;;;;;7.11;100.00;100796.23;1638043;87;21200;-56
2022/09/07 00:45:33;;;;;;;3.90;2.67;;;;;;;7.12;100.00;100799.16;1637422;87;21040;-56
2022/09/07 00:48:13;;;;;;;4.97;2.50;;;;;;;7.15;100.00;100795.46;1637300;87;22152;-58
2022/09/07 00:50:50;;;;;;;4.15;2.50;;;;;;;7.12;100.00;100800.94;1637759;87;21635;-56
2022/09/07 00:53:22;;;;;;;4.40;2.27;;;;;;;7.10;100.00;100797.69;1636839;87;20967;-57
2022/09/07 00:55:50;;;;;;;6.97;2.50;;;;;;;7.09;100.00;100802.55;1637378;87;21125;-56
2022/09/07 00:58:19;;;;;;;5.28;2.72;;;;;;;7.06;100.00;100791.50;1637699;87;21127;-56
2022/09/07 01:00:46;;;;;;;4.20;2.65;;;;;;;7.06;100.00;100792.80;1637853;87;20979;-57
2022/09/07 01:03:17;;;;;;;6.45;2.62;;;;;;;7.03;100.00;100798.27;1637403;87;21492;-63
2022/09/07 01:05:52;;;;;;;4.83;2.50;;;;;;;7.01;100.00;100798.91;1637750;87;21524;-56
2022/09/07 01:08:20;;;;;;;4.67;2.55;;;;;;;6.98;100.00;100796.60;1637679;87;21249;-56
2022/09/07 01:10:47;;;;;;;4.65;3.00;;;;;;;6.95;100.00;100793.48;1637331;87;21435;-62
2022/09/07 01:13:15;;;;;;;5.70;2.60;;;;;;;6.94;100.00;100796.56;1637668;87;21498;-56
2022/09/07 01:15:53;;;;;;;7.62;3.40;;;;;;;6.90;100.00;100792.64;1637414;87;21051;-57
2022/09/07 01:18:58;;;;;;;4.37;2.90;;;;;;;6.85;100.00;100793.53;1619960;87;21434;-56
2022/09/07 01:22:20;;;;;;;5.05;3.00;;;;;;;6.72;100.00;100792.59;1637599;87;21319;-57
2022/09/07 01:25:28;;;;;;;7.15;3.10;;;;;;;6.66;100.00;100785.38;1637915;87;21790;-55
2022/09/07 01:28:12;;;;;;;5.65;3.20;;;;;;;6.67;100.00;100787.04;1637162;87;20920;-56
2022/09/07 01:30:42;;;;;;;5.75;2.60;;;;;;;6.63;100.00;100788.74;1637666;87;21070;-55
2022/09/07 01:33:20;;;;;;;4.65;2.40;;;;;;;6.60;100.00;100792.45;1670173;84;20954;-56
2022/09/07 01:36:31;;;;;;;5.37;2.70;;;;;;;6.53;100.00;100794.80;1670527;84;21245;-55
2022/09/07 01:39:01;;;;;;;4.58;1.72;;;;;;;6.44;100.00;100795.67;1670455;84;21098;-55
2022/09/07 01:41:49;;;;;;;4.22;1.87;;;;;;;6.41;100.00;100792.06;1670326;85;21046;-55
2022/09/07 01:44:21;;;;;;;3.50;2.12;;;;;;;6.30;100.00;100791.76;1654418;85;21450;-56
2022/09/07 01:47:19;;;;;;;3.30;1.90;;;;;;;6.09;100.00;100795.02;1670397;85;21145;-55
2022/09/07 01:50:06;;;;;;;3.33;1.85;;;;;;;5.93;100.00;100799.97;1669294;84;21526;-55
2022/09/07 01:52:43;;;;;;;4.58;2.00;;;;;;;5.74;100.00;100801.59;1670694;85;21078;-54
2022/09/07 01:55:18;;;;;;;4.08;2.05;;;;;;;5.58;100.00;100803.94;1669870;85;21014;-60
2022/09/07 01:57:53;;;;;;;3.47;2.10;;;;;;;5.47;100.00;100802.30;1670605;84;20970;-54
2022/09/07 02:00:20;;;;;;;4.28;2.08;;;;;;;5.32;100.00;100809.64;1670717;84;20948;-55
2022/09/07 02:03:08;;;;;;;5.40;2.25;;;;;;;5.22;100.00;100814.45;1669991;84;21163;-56
2022/09/07 02:05:52;;;;;;;5.78;2.17;;;;;;;5.11;100.00;100812.36;1688136;84;21117;-54
2022/09/07 02:08:33;;;;;;;7.00;2.55;;;;;;;5.02;100.00;100814.91;1692134;83;21433;-61
2022/09/07 02:11:07;;;;;;;7.30;2.17;;;;;;;4.92;100.00;100808.42;1693294;84;21934;-54
2022/09/07 02:13:38;;;;;;;8.55;2.58;;;;;;;4.81;100.00;100810.66;1692990;84;21070;-55
2022/09/07 02:16:09;;;;;;;8.33;2.72;;;;;;;4.72;100.00;100812.72;1692220;84;21497;-62
2022/09/07 02:18:47;;;;;;;6.97;2.30;;;;;;;4.66;100.00;100813.72;1692668;83;21081;-55
2022/09/07 02:21:19;;;;;;;8.45;2.60;;;;;;;4.57;100.00;100813.55;1693190;84;21003;-54
2022/09/07 02:23:53;;;;;;;4.87;2.05;;;;;;;4.50;100.00;100820.66;1693060;84;20919;-60
2022/09/07 02:26:22;;;;;;;6.53;2.37;;;;;;;4.44;100.00;100815.55;1692587;84;21496;-55
2022/09/07 02:28:52;;;;;;;4.58;2.65;;;;;;;4.41;100.00;100818.39;1692800;84;21528;-54
2022/09/07 02:31:19;;;;;;;7.28;2.60;;;;;;;4.38;100.00;100819.45;1692726;84;21450;-54
2022/09/07 02:33:47;;;;;;;5.47;2.25;;;;;;;4.32;100.00;100820.47;1692262;83;21462;-60
2022/09/07 02:36:15;;;;;;;7.00;2.00;;;;;;;4.27;100.00;100820.83;1692239;84;21010;-56
2022/09/07 02:38:42;;;;;;;6.47;2.72;;;;;;;4.23;100.00;100822.50;1692817;84;21068;-55
2022/09/07 02:41:35;;;;;;;4.55;2.17;;;;;;;4.18;100.00;100825.95;1692592;83;21302;-55
2022/09/07 02:44:08;;;;;;;6.20;2.30;;;;;;;4.14;100.00;100824.91;1691670;84;20931;-55
2022/09/07 02:46:48;;;;;;;4.05;2.25;;;;;;;4.07;100.00;100830.70;1692367;83;20998;-54
2022/09/07 02:49:57;;;;;;;4.80;2.00;;;;;;;4.00;100.00;100824.41;1661480;84;21034;-55
2022/09/07 02:53:00;;;;;;;5.37;2.37;;;;;;;3.96;100.00;100826.42;1692383;84;21015;-55
2022/09/07 02:55:52;;;;;;;5.15;2.72;;;;;;;3.94;100.00;100837.36;1692793;83;21848;-54
2022/09/07 02:59:01;;;;;;;4.80;3.05;;;;;;;3.92;100.00;100834.07;1691647;84;21460;-55
2022/09/07 03:01:57;;;;;;;4.42;2.15;;;;;;;3.88;100.00;100824.95;1692906;84;21010;-56
2022/09/07 03:04:45;;;;;;;6.25;2.33;;;;;;;3.88;100.00;100834.79;1674261;83;21110;-56
2022/09/07 03:07:22;;;;;;;4.45;2.42;;;;;;;3.88;100.00;100833.50;1700356;83;20966;-54
2022/09/07 03:09:52;;;;;;;4.92;2.77;;;;;;;3.95;100.00;100836.88;1700689;84;21170;-54
2022/09/07 03:12:19;;;;;;;5.47;2.58;;;;;;;3.94;100.00;100843.80;1700500;84;21457;-55
2022/09/07 03:14:46;;;;;;;4.08;2.40;;;;;;;3.94;100.00;100841.22;1700398;83;21088;-56
2022/09/07 03:17:15;;;;;;;5.67;2.60;;;;;;;4.04;100.00;100839.51;1700740;84;21465;-55
2022/09/07 03:19:43;;;;;;;5.10;2.60;;;;;;;4.12;100.00;100846.61;1701433;84;21519;-54
2022/09/07 03:22:10;;;;;;;8.85;4.25;;;;;;;4.23;100.00;100850.41;1700473;83;21104;-56
2022/09/07 03:24:39;;;;;;;9.05;7.05;;;;;;;4.51;100.00;100850.23;1700876;83;21008;-56
2022/09/07 03:27:06;;;;;;;7.50;5.53;;;;;;;4.84;100.00;100850.89;1700657;83;20994;-54
2022/09/07 03:29:34;;;;;;;7.12;4.50;;;;;;;5.52;100.00;100859.59;1701155;83;21006;-54
2022/09/07 03:32:01;;;;;;;5.78;4.20;;;;;;;6.45;100.00;100855.56;1673004;84;20998;-57
2022/09/07 03:34:29;;;;;;;7.47;3.60;;;;;;;7.54;100.00;100853.87;1700848;84;22328;-55
2022/09/07 03:36:57;;;;;;;6.00;2.95;;;;;;;8.71;100.00;100854.01;1700513;84;21074;-56
2022/09/07 03:39:25;;;;;;;5.93;3.00;;;;;;;9.91;100.00;100844.97;1701152;83;21659;-58
2022/09/07 03:41:52;;;;;;;4.27;2.10;;;;;;;11.04;100.00;100846.13;1700923;84;21412;-57
2022/09/07 03:44:19;;;;;;;3.93;2.30;;;;;;;12.07;100.00;100850.44;1700509;83;21182;-56
2022/09/07 03:46:47;;;;;;;5.90;2.40;;;;;;;13.07;100.00;100842.59;1700559;84;21764;-62
2022/09/07 03:49:15;;;;;;;3.80;2.40;;;;;;;13.99;100.00;100833.97;1701013;84;22062;-55
2022/09/07 03:51:42;;;;;;;3.43;2.23;;;;;;;14.77;100.00;100831.50;1701338;84;20974;-55
2022/09/07 03:54:10;;;;;;;4.43;2.00;;;;;;;15.44;100.00;100822.45;1701178;83;20970;-63
2022/09/07 03:56:38;;;;;;;3.67;2.30;;;;;;;16.14;100.00;100827.61;1700756;83;21575;-61
2022/09/07 03:59:07;;;;;;;3.87;2.27;;;;;;;16.81;100.00;100822.14;1700929;84;21133;-55
2022/09/07 04:01:36;;;;;;;4.27;2.43;;;;;;;17.45;100.00;100822.45;1701232;84;21483;-55
2022/09/07 04:04:03;;;;;;;3.57;2.07;;;;;;;18.14;100.00;100816.17;1701663;84;20994;-55
2022/09/07 04:06:31;;;;;;;5.50;2.10;;;;;;;18.80;93.04;100820.44;1693534;83;21084;-64
2022/09/07 04:09:03;;;;;;;3.73;2.33;;;;;;;19.35;78.03;100821.05;1692930;84;21162;-56
2022/09/07 04:11:32;;;;;;;4.03;2.47;;;;;;;19.76;69.83;100817.28;1693836;84;21220;-55
2022/09/07 04:14:00;;;;;;;4.07;2.47;;;;;;;20.24;64.91;100817.54;1693304;83;20896;-55
2022/09/07 04:16:28;;;;;;;4.03;2.20;;;;;;;20.71;60.91;100826.18;1693346;84;21027;-57
2022/09/07 04:18:57;;;;;;;3.83;2.37;;;;;;;21.15;56.99;100827.78;1693028;84;21502;-55
2022/09/07 04:21:26;;;;;;;3.30;2.60;;;;;;;21.60;54.85;100822.97;1693287;83;21006;-55
2022/09/07 04:23:53;;;;;;;3.70;2.60;;;;;;;22.06;52.18;100825.75;1693375;84;21149;-55
2022/09/07 04:26:23;;;;;;;3.43;2.23;;;;;;;22.54;49.90;100818.12;1692953;84;21069;-57
2022/09/07 04:28:51;;;;;;;4.33;2.93;;;;;;;22.90;47.93;100819.31;1692205;84;20943;-64
2022/09/07 04:31:19;;;;;;;3.77;2.80;;;;;;;23.16;46.14;100820.91;1692859;83;20974;-56
2022/09/07 04:33:48;;;;;;;4.12;2.65;;;;;;;23.36;45.43;100827.72;1692681;84;21061;-56
2022/09/07 04:36:15;;;;;;;4.55;2.95;;;;;;;23.64;44.73;100833.77;1692450;83;21885;-55
2022/09/07 04:38:43;;;;;;;4.10;2.70;;;;;;;23.92;43.59;100824.15;1692117;83;20951;-64
2022/09/07 04:41:15;;;;;;;4.10;2.72;;;;;;;24.21;42.93;100827.77;1692723;84;22019;-55
2022/09/07 04:43:44;;;;;;;4.20;2.30;;;;;;;24.57;42.36;100825.25;1693304;84;20992;-55
2022/09/07 04:46:20;;;;;;;4.50;3.02;;;;;;;24.94;40.97;100821.07;1693392;84;21030;-56
2022/09/07 04:48:50;;;;;;;4.30;3.20;;;;;;;25.28;40.27;100822.72;1692104;84;21254;-57
2022/09/07 04:51:17;;;;;;;5.17;4.35;;;;;;;25.68;39.25;100826.41;1693162;84;21330;-56
2022/09/07 04:53:47;;;;;;;7.12;5.80;;;;;;;26.00;38.71;100823.98;1693377;84;20947;-57
2022/09/07 04:56:16;;;;;;;9.73;6.25;;;;;;;26.35;38.01;100817.69;1692980;84;20994;-57
2022/09/07 04:58:43;;;;;;;4.95;4.17;;;;;;;26.72;37.63;100816.46;1692532;84;21035;-62
2022/09/07 05:01:15;;;;;;;4.10;2.75;;;;;;;27.05;36.83;100818.89;1693556;84;22189;-55
2022/09/07 05:03:42;;;;;;;3.60;2.77;;;;;;;27.34;36.03;100817.62;1693651;84;21046;-55
2022/09/07 05:06:09;;;;;;;4.70;3.20;;;;;;;27.39;35.12;100821.06;1693345;83;20995;-55
2022/09/07 05:08:44;;;;;;;5.45;3.27;;;;;;;27.41;35.22;100821.56;1693701;84;21517;-55
2022/09/07 05:11:11;;;;;;;4.75;3.00;;;;;;;27.55;35.11;100820.37;1693023;83;21066;-55
2022/09/07 05:13:40;;;;;;;3.77;3.17;;;;;;;27.79;34.59;100823.09;1693478;84;22546;-55
2022/09/07 05:16:11;;;;;;;4.28;2.98;;;;;;;27.88;34.24;100823.27;1693507;84;20948;-55
2022/09/07 05:18:38;;;;;;;4.72;3.20;;;;;;;27.80;33.87;100824.69;1692893;84;20959;-59
2022/09/07 05:21:14;;;;;;;4.70;3.17;;;;;;;27.49;33.81;100828.73;1692543;83;21034;-56
2022/09/07 05:23:42;;;;;;;5.42;3.35;;;;;;;26.92;34.21;100826.47;1693680;83;21054;-54
2022/09/07 05:26:10;;;;;;;5.10;3.45;;;;;;;26.44;35.29;100838.24;1693480;84;21823;-54
2022/09/07 05:28:38;;;;;;;5.33;3.87;;;;;;;25.95;36.03;100842.96;1692341;84;21078;-62
2022/09/07 05:31:10;;;;;;;6.05;4.03;;;;;;;25.31;37.08;100842.20;1692302;84;21006;-55
2022/09/07 05:33:38;;;;;;;6.40;4.05;;;;;;;24.61;38.35;100847.12;1671408;84;21057;-54
2022/09/07 05:36:06;;;;;;;4.40;3.35;;;;;;;23.98;39.29;100844.43;1693273;84;20955;-55
2022/09/07 05:38:35;;;;;;;5.83;3.80;;;;;;;23.29;40.74;100841.76;1692454;83;21146;-57
2022/09/07 05:41:16;;;;;;;5.58;3.85;;;;;;;22.58;42.08;100845.30;1692191;83;22034;-56
2022/09/07 05:43:44;;;;;;;6.27;3.60;;;;;;;21.97;43.78;100855.11;1692916;84;20994;-54
2022/09/07 05:46:13;;;;;;;4.83;3.43;;;;;;;21.51;45.52;100862.34;1692798;84;21078;-62
2022/09/07 05:48:40;;;;;;;5.60;3.67;;;;;;;21.16;46.73;100864.37;1692369;83;20948;-55
2022/09/07 05:51:07;;;;;;;5.43;3.50;;;;;;;20.85;48.26;100860.63;1692028;83;21240;-55
2022/09/07 05:53:38;;;;;;;5.90;4.43;;;;;;;20.64;49.96;100863.39;1692720;83;21125;-55
2022/09/07 05:56:06;;;;;;;7.20;4.20;;;;;;;20.52;50.15;100861.30;1692555;84;20940;-61
2022/09/07 05:58:35;;;;;;;8.00;4.03;;;;;;;20.51;50.79;100865.00;1692226;84;21023;-55
2022/09/07 06:01:08;;;;;;;6.30;4.07;;;;;;;20.50;52.11;100867.37;1692115;84;20939;-55
2022/09/07 06:03:37;;;;;;;6.00;3.60;;;;;;;20.41;52.35;100864.75;1692679;83;21228;-54
2022/09/07 06:06:10;;;;;;;6.47;4.03;;;;;;;20.23;53.38;100871.50;1693870;84;20950;-61
2022/09/07 06:08:41;;;;;;;4.60;3.27;;;;;;;20.14;56.11;100868.41;1700688;83;22024;-63
2022/09/07 06:11:10;;;;;;;5.00;3.63;;;;;;;20.17;55.82;100868.75;1701041;84;21486;-54
2022/09/07 06:13:38;;;;;;;5.57;3.27;;;;;;;20.25;58.05;100866.80;1700893;83;21460;-54
2022/09/07 06:16:07;;;;;;;5.60;2.57;;;;;;;20.46;59.23;100872.02;1700951;84;22374;-57
2022/09/07 06:18:37;;;;;;;5.03;3.27;;;;;;;20.77;56.47;100865.52;1700558;83;20879;-54
2022/09/07 06:21:06;;;;;;;5.97;2.80;;;;;;;21.19;55.30;100871.85;1701584;84;21757;-56
2022/09/07 06:23:34;;;;;;;4.73;2.93;;;;;;;21.60;52.37;100868.88;1701880;84;20978;-54
2022/09/07 06:26:01;;;;;;;4.93;3.37;;;;;;;22.03;51.72;100870.56;1701807;84;21054;-55
2022/09/07 06:28:31;;;;;;;5.85;3.20;;;;;;;22.55;50.82;100871.02;1700475;84;21492;-63
2022/09/07 06:31:03;;;;;;;3.42;2.22;;;;;;;23.26;49.08;100871.52;1701694;83;21324;-55
2022/09/07 06:33:31;;;;;;;3.15;2.25;;;;;;;24.15;45.86;100874.08;1701779;84;20994;-55
2022/09/07 06:36:00;;;;;;;3.33;2.30;;;;;;;25.05;42.43;100869.91;1701714;84;21610;-55
2022/09/07 06:38:33;;;;;;;3.10;1.90;;;;;;;25.86;39.87;100877.95;1700862;84;21010;-57
2022/09/07 06:41:17;;;;;;;3.42;1.60;;;;;;;26.42;37.27;100875.13;1701544;83;21226;-55
2022/09/07 06:43:45;;;;;;;2.33;1.30;;;;;;;26.99;36.35;100876.20;1701034;84;20953;-64
2022/09/07 06:46:12;;;;;;;2.80;1.42;;;;;;;27.53;34.64;100874.74;1700625;83;21499;-62
2022/09/07 06:48:39;;;;;;;2.62;1.32;;;;;;;27.97;33.41;100873.83;1701044;84;21446;-55
2022/09/07 06:51:14;;;;;;;2.17;1.52;;;;;;;28.33;32.76;100877.42;1701549;84;21479;-55
2022/09/07 06:53:41;;;;;;;2.05;1.40;;;;;;;28.62;32.26;100874.69;1701239;84;21236;-63
2022/09/07 06:56:12;;;;;;;1.90;1.07;;;;;;;28.79;31.28;100874.17;1700438;84;21359;-57
2022/09/07 06:58:39;;;;;;;2.47;1.17;;;;;;;28.94;30.66;100873.95;1701115;83;21429;-54
2022/09/07 07:01:15;;;;;;;1.50;0.75;;;;;;;29.20;29.69;100876.28;1701122;84;21480;-55
2022/09/07 07:03:42;;;;;;;1.30;0.80;;;;;;;29.32;29.05;100873.41;1700697;84;21523;-57
2022/09/07 07:06:11;;;;;;;3.47;1.32;;;;;;;29.57;29.29;100881.61;1699355;84;22250;-57
2022/09/07 07:08:38;;;;;;;1.62;1.02;;;;;;;29.95;28.22;100882.02;1669036;84;21055;-55
2022/09/07 07:11:08;;;;;;;1.70;0.80;;;;;;;30.22;27.90;100890.11;1668978;85;21054;-55
2022/09/07 07:13:37;;;;;;;2.72;1.10;;;;;;;30.51;27.20;100895.72;1668727;84;20959;-56
2022/09/07 07:16:09;;;;;;;1.70;1.20;;;;;;;30.83;26.47;100891.29;1668565;85;21572;-57
2022/09/07 07:18:37;;;;;;;1.80;1.20;;;;;;;30.77;26.13;100892.76;1669088;85;21139;-55
2022/09/07 07:21:06;;;;;;;2.15;1.07;;;;;;;30.44;25.93;100892.64;1668858;85;21502;-59
2022/09/07 07:23:33;;;;;;;1.52;0.90;;;;;;;29.93;26.21;100885.53;1668455;84;21007;-60
2022/09/07 07:26:14;;;;;;;2.22;1.32;;;;;;;29.83;26.22;100891.12;1668461;84;21312;-55
2022/09/07 07:28:43;;;;;;;1.10;0.75;;;;;;;29.84;25.95;100884.64;1668903;84;21114;-55
2022/09/07 07:31:11;;;;;;;1.37;0.90;;;;;;;29.61;25.68;100886.39;1668661;85;21242;-57
2022/09/07 07:33:38;;;;;;;1.77;0.93;;;;;;;29.58;26.06;100885.08;1668471;84;21260;-58
2022/09/07 07:36:16;;;;;;;2.33;1.20;;;;;;;29.88;25.44;100881.05;1668808;84;21004;-56
2022/09/07 07:38:49;;;;;;;3.00;1.70;;;;;;;30.24;25.90;100875.83;1668859;85;20995;-56
2022/09/07 07:41:18;;;;;;;2.25;1.52;;;;;;;30.44;26.60;100879.19;1668692;84;21157;-55
2022/09/07 07:43:45;;;;;;;2.90;1.82;;;;;;;30.61;27.18;100878.55;1668423;84;21301;-64
2022/09/07 07:46:14;;;;;;;2.42;1.42;;;;;;;30.69;26.82;100880.00;1668530;84;21540;-56
2022/09/07 07:48:41;;;;;;;2.87;1.12;;;;;;;30.61;26.78;100873.98;1668709;84;22059;-56
2022/09/07 07:51:14;;;;;;;2.83;1.60;;;;;;;30.58;25.89;100875.14;1668505;85;21018;-55
2022/09/07 07:53:39;;;;;;;2.17;1.35;;;;;;;30.52;26.84;100877.92;1668056;85;26522;-58
2022/09/07 07:56:08;;;;;;;2.33;1.20;;;;;;;30.47;27.16;100883.97;1668971;85;21924;-55
2022/09/07 07:58:35;;;;;;;1.67;0.95;;;;;;;30.40;26.72;100876.86;1668712;85;21055;-57
2022/09/07 08:01:06;;;;;;;3.40;1.37;;;;;;;30.17;27.27;100879.46;1668603;84;21121;-56
2022/09/07 08:03:34;;;;;;;2.08;1.17;;;;;;;29.91;27.27;100885.05;1669374;84;21496;-55
2022/09/07 08:06:08;;;;;;;2.50;1.70;;;;;;;29.16;26.85;100890.84;1668577;84;21577;-55
2022/09/07 08:08:36;;;;;;;3.17;1.30;;;;;;;28.17;27.88;100889.42;1689263;84;21879;-56
2022/09/07 08:11:07;;;;;;;2.92;1.22;;;;;;;27.30;28.68;100883.51;1692628;84;21571;-54
2022/09/07 08:13:39;;;;;;;3.00;1.47;;;;;;;26.49;29.15;100886.10;1692422;83;21019;-64
2022/09/07 08:16:06;;;;;;;2.35;1.40;;;;;;;25.65;30.31;100888.38;1692607;83;20951;-65
2022/09/07 08:18:35;;;;;;;2.87;1.90;;;;;;;24.87;31.02;100886.66;1692771;84;20949;-54
2022/09/07 08:21:06;;;;;;;2.80;1.85;;;;;;;24.33;31.92;100880.83;1692967;84;21748;-55
2022/09/07 08:23:33;;;;;;;1.95;1.45;;;;;;;24.35;33.01;100878.70;1692373;84;21065;-56
2022/09/07 08:26:01;;;;;;;3.55;1.12;;;;;;;24.86;32.82;100875.73;1692386;83;21070;-59
2022/09/07 08:28:30;;;;;;;3.00;1.85;;;;;;;25.48;31.87;100879.30;1692559;83;21551;-55
2022/09/07 08:30:57;;;;;;;2.52;1.40;;;;;;;25.80;30.88;100877.72;1692895;84;20967;-56
2022/09/07 08:33:24;;;;;;;2.47;1.47;;;;;;;25.71;30.45;100879.28;1692466;84;22232;-59
2022/09/07 08:36:02;;;;;;;2.65;1.47;;;;;;;25.23;31.03;100872.09;1692493;83;21015;-55
2022/09/07 08:38:31;;;;;;;2.40;1.63;;;;;;;24.75;31.31;100872.77;1692908;83;21090;-56
2022/09/07 08:40:58;;;;;;;4.47;1.77;;;;;;;24.33;31.63;100876.84;1692835;83;21529;-54
2022/09/07 08:43:36;;;;;;;2.43;1.30;;;;;;;23.78;31.90;100874.91;1692239;84;20947;-54
2022/09/07 08:46:21;;;;;;;2.17;1.13;;;;;;;23.42;32.76;100877.80;1691986;84;22190;-54
2022/09/07 08:48:48;;;;;;;2.00;1.13;;;;;;;23.34;34.01;100867.09;1692648;84;21006;-56
2022/09/07 08:51:35;;;;;;;2.10;1.20;;;;;;;23.68;33.86;100862.34;1692312;84;21507;-56
2022/09/07 08:54:02;;;;;;;1.53;0.80;;;;;;;23.93;33.23;100866.22;1691905;83;21068;-55
2022/09/07 08:56:32;;;;;;;1.60;1.00;;;;;;;23.88;32.22;100860.34;1671377;84;20973;-54
2022/09/07 08:59:00;;;;;;;2.23;1.00;;;;;;;23.60;32.00;100859.30;1692502;84;21389;-64
2022/09/07 09:01:36;;;;;;;1.40;0.67;;;;;;;23.37;31.45;100858.58;1670630;83;21023;-54
2022/09/07 09:04:03;;;;;;;1.80;1.00;;;;;;;23.06;31.53;100859.64;1693019;84;21027;-54
2022/09/07 09:06:57;;;;;;;1.70;0.80;;;;;;;22.81;32.17;100864.68;1693520;83;21020;-56
2022/09/07 09:10:04;;;;;;;1.60;0.80;;;;;;;22.67;32.54;100863.45;1693442;84;21114;-53
2022/09/07 09:13:11;;;;;;;1.50;0.87;;;;;;;22.63;33.14;100854.37;1693698;84;21420;-54
2022/09/07 09:15:59;;;;;;;1.13;0.80;;;;;;;23.07;33.51;100847.17;1692509;84;20957;-57
2022/09/07 09:19:05;;;;;;;1.70;1.00;;;;;;;24.06;33.24;100843.14;1693264;84;21153;-56
2022/09/07 09:21:34;;;;;;;1.27;0.70;;;;;;;25.03;30.79;100830.67;1692163;83;21043;-58
2022/09/07 09:24:16;;;;;;;2.07;1.00;;;;;;;25.56;29.91;100833.91;1693569;83;21418;-56
2022/09/07 09:26:51;;;;;;;3.50;1.33;;;;;;;25.95;28.95;100825.59;1692650;84;21907;-57
2022/09/07 09:29:20;;;;;;;2.33;1.60;;;;;;;26.40;28.95;100825.67;1693390;84;21088;-58
2022/09/07 09:31:47;;;;;;;2.83;2.00;;;;;;;26.69;27.91;100819.14;1693283;84;20876;-56
2022/09/07 09:34:16;;;;;;;2.40;1.60;;;;;;;26.67;27.60;100825.32;1693132;83;21521;-67
2022/09/07 09:36:51;;;;;;;2.73;1.40;;;;;;;26.37;28.09;100828.38;1693164;84;21129;-56
2022/09/07 09:39:35;;;;;;;1.87;1.10;;;;;;;26.14;28.56;100826.34;1693123;84;21130;-54
2022/09/07 09:42:18;;;;;;;2.27;1.20;;;;;;;25.83;28.96;100825.07;1692375;84;21047;-66
2022/09/07 09:44:46;;;;;;;3.10;1.10;;;;;;;25.57;29.17;100830.16;1692738;84;21065;-55
2022/09/07 09:47:29;;;;;;;3.07;1.30;;;;;;;25.23;29.26;100828.86;1693190;84;21556;-55
2022/09/07 09:49:59;;;;;;;2.10;1.10;;;;;;;24.93;29.31;100830.94;1692640;84;21525;-56
2022/09/07 09:52:26;;;;;;;2.77;1.15;;;;;;;24.56;29.00;100827.13;1693803;84;21281;-55
2022/09/07 09:54:55;;;;;;;2.10;1.10;;;;;;;24.35;30.62;100825.41;1693384;84;21489;-55
2022/09/07 09:57:56;;;;;;;1.80;1.00;;;;;;;24.61;30.88;100822.33;1692701;83;20998;-57
2022/09/07 10:00:26;;;;;;;1.67;1.10;;;;;;;25.09;30.12;100816.28;1692754;84;21066;-55
2022/09/07 10:03:16;;;;;;;1.75;1.00;;;;;;;25.57;29.78;100815.48;1693706;83;21513;-55
2022/09/07 10:05:46;;;;;;;1.93;1.23;;;;;;;25.96;28.97;100808.48;1693147;83;39252;-55
2022/09/07 10:08:30;;;;;;;3.00;0.93;;;;;;;26.39;27.74;100808.05;1693279;83;21007;-54
2022/09/07 10:11:08;;;;;;;1.90;0.95;;;;;;;26.51;28.40;100807.74;1672758;84;21011;-56
2022/09/07 10:13:54;;;;;;;1.33;0.73;;;;;;;27.02;27.49;100806.09;1693139;83;21445;-54
2022/09/07 10:16:38;;;;;;;2.00;0.80;;;;;;;27.26;27.46;100802.17;1692552;84;21406;-62
2022/09/07 10:19:05;;;;;;;2.37;1.10;;;;;;;27.21;27.36;100806.23;1692488;84;21312;-55
2022/09/07 10:21:32;;;;;;;1.35;0.90;;;;;;;26.72;27.03;100804.42;1670606;84;21041;-54
2022/09/07 10:24:09;;;;;;;4.15;1.22;;;;;;;25.98;27.78;100808.75;1691933;84;20947;-55
2022/09/07 10:26:37;;;;;;;1.52;0.70;;;;;;;25.43;28.54;100813.37;1692774;84;20982;-55
2022/09/07 10:29:29;;;;;;;1.73;1.00;;;;;;;25.10;28.93;100811.24;1693007;84;21071;-55
2022/09/07 10:32:04;;;;;;;1.77;0.87;;;;;;;24.93;29.81;100804.81;1692994;84;21643;-54
2022/09/07 10:34:59;;;;;;;3.40;1.00;;;;;;;24.87;29.72;100805.32;1692710;84;20983;-54
2022/09/07 10:38:09;;;;;;;1.03;0.70;;;;;;;24.99;30.02;100800.53;1692420;84;21273;-54
2022/09/07 10:40:53;;;;;;;1.73;1.07;;;;;;;25.17;29.11;100794.44;1692246;84;21059;-64
2022/09/07 10:43:25;;;;;;;1.77;0.90;;;;;;;25.02;29.19;100791.73;1693082;84;20940;-54
2022/09/07 10:46:16;;;;;;;1.30;0.60;;;;;;;24.86;28.93;100794.39;1690572;83;21226;-54
2022/09/07 10:49:11;;;;;;;2.67;1.03;;;;;;;24.72;29.20;100791.97;1693384;84;20963;-54
2022/09/07 10:51:57;;;;;;;3.20;0.70;;;;;;;24.45;29.01;100790.30;1692419;83;21433;-54
2022/09/07 10:55:02;;;;;;;1.10;0.60;;;;;;;24.08;29.56;100794.39;1693418;83;21607;-55
2022/09/07 10:57:37;;;;;;;1.27;0.70;;;;;;;23.79;30.13;100788.67;1693069;83;21010;-54
2022/09/07 11:00:15;;;;;;;1.53;0.60;;;;;;;23.53;30.69;100785.82;1693440;83;21193;-55
2022/09/07 11:03:09;;;;;;;1.03;0.60;;;;;;;23.44;31.30;100786.01;1692338;83;21031;-55
2022/09/07 11:06:09;;;;;;;1.27;0.60;;;;;;;23.45;30.73;100785.47;1693568;84;20952;-54
2022/09/07 11:08:50;;;;;;;3.10;0.70;;;;;;;23.31;30.38;100790.45;1693491;83;21062;-54
2022/09/07 11:11:54;;;;;;;1.83;1.03;;;;;;;22.96;31.00;100790.96;1693621;84;20960;-54
2022/09/07 11:14:22;;;;;;;1.13;0.60;;;;;;;22.66;31.40;100786.91;1637480;86;21235;-54
2022/09/07 11:16:54;;;;;;;1.40;0.60;;;;;;;22.38;31.72;100783.94;1675461;84;21437;-65
2022/09/07 11:19:35;;;;;;;1.43;0.70;;;;;;;22.25;32.43;100778.48;1692125;84;21842;-54
2022/09/07 11:22:29;;;;;;;2.27;0.80;;;;;;;22.39;31.99;100780.75;1692352;84;20959;-54
2022/09/07 11:25:36;;;;;;;2.77;0.70;;;;;;;22.63;32.00;100768.81;1692566;84;21077;-56
2022/09/07 11:28:14;;;;;;;1.67;0.80;;;;;;;22.87;31.16;100775.14;1670084;84;21390;-58
2022/09/07 11:30:56;;;;;;;1.90;0.80;;;;;;;22.83;31.31;100773.52;1665128;84;21394;-55
2022/09/07 11:33:42;;;;;;;1.42;0.80;;;;;;;22.79;31.71;100774.54;1692273;84;20956;-58
2022/09/07 11:36:13;;;;;;;2.20;1.27;;;;;;;22.98;32.80;100777.67;1692006;84;21641;-55
2022/09/07 11:38:54;;;;;;;2.52;1.12;;;;;;;23.44;31.54;100767.38;1693086;84;21031;-54
2022/09/07 11:41:30;;;;;;;1.10;0.62;;;;;;;23.53;31.70;100775.17;1690927;83;27156;-62
2022/09/07 11:44:25;;;;;;;1.50;0.90;;;;;;;23.94;31.13;100763.46;1693036;84;20970;-55
2022/09/07 11:46:54;;;;;;;1.17;0.70;;;;;;;24.50;30.97;100762.33;1691897;83;21474;-55
2022/09/07 11:49:24;;;;;;;1.20;0.80;;;;;;;25.06;29.82;100759.46;1693328;84;21705;-54
2022/09/07 11:52:09;;;;;;;1.35;0.80;;;;;;;25.22;29.20;100757.87;1693237;84;21031;-54
2022/09/07 11:54:49;;;;;;;1.47;0.90;;;;;;;25.36;28.59;100760.80;1692239;84;21732;-55
2022/09/07 11:57:45;;;;;;;1.40;0.83;;;;;;;25.50;28.90;100758.92;1692745;84;21027;-54